Time;durP1;ratioP1;P1;durP2;ratioP2;P2;SDS_P1;SDS_P2;PMS_P1;PMS_P2;Temp;Humidity;BMP_temperature;BMP_pressure;BME280_temperature;BME280_humidity;BME280_pressure;Samples;Min_cycle;Max_cycle;Signal;HPM_P1;HPM_P2
2024/02/09 00:01:25;;;;;;;2.35;2.15;;;4.70;99.90;;;;;;5128868;27;20217;-79
2024/02/09 00:03:53;;;;;;;3.15;2.85;;;4.80;99.90;;;;;;5140677;27;20210;-79
2024/02/09 00:06:21;;;;;;;3.05;2.80;;;4.80;99.90;;;;;;5116886;27;20275;-76
2024/02/09 00:08:49;;;;;;;2.78;2.58;;;4.80;99.90;;;;;;5128353;27;20214;-80
2024/02/09 00:11:18;;;;;;;3.88;3.42;;;4.80;99.90;;;;;;5127541;27;20305;-80
2024/02/09 00:13:45;;;;;;;2.83;2.35;;;4.70;99.90;;;;;;5130866;27;20233;-77
2024/02/09 00:16:12;;;;;;;2.50;2.30;;;4.80;99.90;;;;;;5133284;27;20308;-77
2024/02/09 00:18:40;;;;;;;3.67;3.35;;;4.60;99.90;;;;;;5133260;27;20306;-80
2024/02/09 00:21:10;;;;;;;2.95;2.75;;;4.60;99.90;;;;;;5137808;27;20219;-77
2024/02/09 00:23:37;;;;;;;3.13;2.90;;;4.60;99.90;;;;;;5144361;27;20252;-77
2024/02/09 00:26:06;;;;;;;3.20;2.90;;;4.60;99.90;;;;;;5153621;27;20221;-77
2024/02/09 00:28:33;;;;;;;3.05;2.85;;;4.60;99.90;;;;;;5126186;27;20302;-80
2024/02/09 00:31:00;;;;;;;3.42;3.13;;;4.60;99.90;;;;;;5109099;28;20317;-76
2024/02/09 00:33:29;;;;;;;3.22;2.85;;;4.60;99.90;;;;;;5128494;27;20238;-80
2024/02/09 00:35:56;;;;;;;3.83;3.50;;;4.60;99.90;;;;;;5147821;27;20287;-79
2024/02/09 00:38:23;;;;;;;3.30;3.00;;;4.70;99.90;;;;;;5145230;27;20225;-77
2024/02/09 00:40:51;;;;;;;3.28;2.85;;;4.70;99.90;;;;;;5148949;27;20225;-76
2024/02/09 00:43:27;;;;;;;4.72;3.47;;;4.70;99.90;;;;;;5149404;27;20590;-76
2024/02/09 00:45:54;;;;;;;4.10;3.70;;;4.60;99.90;;;;;;5137724;27;20270;-76
2024/02/09 00:48:23;;;;;;;4.13;3.75;;;4.60;99.90;;;;;;5144312;27;20217;-76
2024/02/09 00:50:52;;;;;;;4.22;3.80;;;4.60;99.90;;;;;;5158800;27;20258;-76
2024/02/09 00:53:20;;;;;;;3.90;3.58;;;4.60;99.90;;;;;;5155968;27;20221;-76
2024/02/09 00:55:47;;;;;;;3.85;3.45;;;4.70;99.90;;;;;;5150229;27;20213;-77
2024/02/09 00:58:14;;;;;;;4.10;3.70;;;4.60;99.90;;;;;;5138287;27;20460;-80
2024/02/09 01:00:42;;;;;;;4.07;3.70;;;4.70;99.90;;;;;;5137536;27;20289;-76
2024/02/09 01:03:15;;;;;;;4.30;3.92;;;4.70;99.90;;;;;;5141520;27;20225;-80
2024/02/09 01:05:46;;;;;;;4.90;4.03;;;4.70;99.90;;;;;;5135039;27;20676;-76
2024/02/09 01:08:14;;;;;;;4.03;3.72;;;4.70;99.90;;;;;;5128741;27;20229;-77
2024/02/09 01:10:43;;;;;;;4.82;4.43;;;4.80;99.90;;;;;;5137843;27;20218;-77
2024/02/09 02:46:18;;;;;;;9.40;8.60;;;4.50;99.90;;;;;;5119369;27;20221;-76
2024/02/09 03:05:20;;;;;;;4.57;3.55;;;4.50;99.90;;;;;;5143161;27;20327;-78
2024/02/09 03:07:52;;;;;;;4.72;3.72;;;4.50;99.90;;;;;;5155598;27;20536;-78
2024/02/09 03:10:21;;;;;;;4.72;3.63;;;4.50;99.90;;;;;;5153969;27;20235;-76
2024/02/09 03:12:49;;;;;;;3.95;3.65;;;4.60;99.90;;;;;;5131295;27;20680;-76
2024/02/09 03:15:18;;;;;;;4.70;4.18;;;4.50;99.90;;;;;;5135195;27;20434;-76
2024/02/09 03:17:46;;;;;;;5.35;4.88;;;4.60;99.90;;;;;;5134640;27;20221;-79
2024/02/09 03:20:14;;;;;;;5.05;4.50;;;4.50;99.90;;;;;;5135048;27;20226;-78
2024/02/09 03:22:41;;;;;;;3.70;3.40;;;4.50;99.90;;;;;;5134740;27;20564;-79
2024/02/09 03:25:08;;;;;;;5.47;4.13;;;4.50;99.90;;;;;;5135205;27;20214;-79
2024/02/09 03:27:39;;;;;;;4.45;3.28;;;4.40;99.90;;;;;;5134230;27;20236;-76
2024/02/09 03:30:09;;;;;;;4.97;4.57;;;4.50;99.90;;;;;;5124428;27;20305;-76
2024/02/09 03:32:38;;;;;;;4.22;3.83;;;4.50;99.90;;;;;;5133629;27;20225;-76
2024/02/09 03:35:06;;;;;;;4.03;3.72;;;4.50;99.90;;;;;;5134889;27;20238;-76
2024/02/09 03:37:34;;;;;;;4.28;3.97;;;4.40;99.90;;;;;;5134030;27;20224;-79
2024/02/09 03:40:02;;;;;;;4.47;4.07;;;4.40;99.90;;;;;;5124101;27;20237;-79
2024/02/09 03:42:29;;;;;;;3.78;3.47;;;4.50;99.90;;;;;;5134575;27;20294;-79
2024/02/09 03:45:00;;;;;;;4.07;3.67;;;4.50;99.90;;;;;;5134229;27;20241;-79
2024/02/09 03:47:28;;;;;;;5.00;4.50;;;4.50;99.90;;;;;;5134694;27;20226;-76
2024/02/09 03:49:56;;;;;;;4.32;3.92;;;4.50;99.90;;;;;;5133241;27;20664;-76
2024/02/09 03:52:24;;;;;;;4.90;4.50;;;4.60;99.90;;;;;;5134149;27;20318;-79
2024/02/09 03:54:53;;;;;;;4.53;4.13;;;4.60;99.90;;;;;;5133989;27;20229;-77
2024/02/09 03:57:20;;;;;;;4.07;3.70;;;4.50;99.90;;;;;;5134358;27;20226;-76
2024/02/09 03:59:47;;;;;;;5.32;4.40;;;4.50;99.90;;;;;;5133615;27;20217;-76
2024/02/09 04:02:15;;;;;;;4.82;4.25;;;4.50;99.90;;;;;;5134511;27;20246;-79
2024/02/09 04:04:44;;;;;;;5.07;4.43;;;4.50;99.90;;;;;;5133974;27;20609;-76
2024/02/09 04:07:11;;;;;;;5.25;4.70;;;4.50;99.90;;;;;;5133422;27;20232;-76
2024/02/09 04:09:39;;;;;;;4.35;4.00;;;4.60;99.90;;;;;;5134150;27;20331;-76
2024/02/09 04:12:08;;;;;;;6.50;4.85;;;4.60;99.90;;;;;;5122925;27;20676;-79
2024/02/09 04:14:39;;;;;;;5.03;4.22;;;4.60;99.90;;;;;;5114040;28;20248;-76
2024/02/09 04:17:06;;;;;;;5.63;5.15;;;4.60;99.90;;;;;;5114006;28;20221;-79
2024/02/09 04:19:38;;;;;;;7.78;6.28;;;4.60;99.90;;;;;;5114142;28;20306;-76
2024/02/09 04:22:08;;;;;;;6.95;4.68;;;4.70;99.90;;;;;;5113472;28;20234;-75
2024/02/09 04:24:37;;;;;;;5.00;4.07;;;4.80;99.90;;;;;;5114297;28;20219;-79
2024/02/09 04:27:05;;;;;;;6.03;5.43;;;4.80;99.90;;;;;;5113717;28;20214;-78
2024/02/09 04:29:32;;;;;;;6.13;5.40;;;4.80;99.90;;;;;;5113818;28;20223;-79
2024/02/09 04:32:01;;;;;;;5.55;5.05;;;4.80;99.90;;;;;;5112874;28;20676;-76
2024/02/09 04:34:28;;;;;;;5.97;5.10;;;4.70;99.90;;;;;;5113486;28;20215;-76
2024/02/09 04:36:56;;;;;;;5.50;5.00;;;4.70;99.90;;;;;;5113331;28;20222;-76
2024/02/09 04:39:23;;;;;;;7.53;5.18;;;4.80;99.90;;;;;;5134004;28;20235;-79
2024/02/09 04:41:52;;;;;;;5.00;4.55;;;4.80;99.90;;;;;;5133458;28;20236;-76
2024/02/09 04:44:21;;;;;;;5.68;5.13;;;4.80;99.90;;;;;;5134004;28;20226;-76
2024/02/09 04:46:49;;;;;;;4.90;4.50;;;4.80;99.90;;;;;;5134149;28;20225;-76
2024/02/09 04:49:16;;;;;;;7.28;5.93;;;4.80;99.90;;;;;;5133868;28;20541;-79
2024/02/09 04:51:44;;;;;;;5.65;5.07;;;4.70;99.90;;;;;;5133478;28;20759;-79
2024/02/09 04:54:12;;;;;;;5.90;5.20;;;4.70;99.90;;;;;;5133692;28;20225;-79
2024/02/09 04:56:40;;;;;;;6.22;5.63;;;4.70;99.90;;;;;;5133531;28;20246;-75
2024/02/09 04:59:08;;;;;;;4.72;4.30;;;4.70;99.90;;;;;;5132719;28;20263;-76
2024/02/09 05:01:38;;;;;;;6.30;5.72;;;4.60;99.90;;;;;;5133906;28;20230;-76
2024/02/09 05:04:07;;;;;;;5.95;5.35;;;4.70;99.90;;;;;;5132692;28;20268;-79
2024/02/09 05:06:35;;;;;;;5.88;5.35;;;4.70;99.90;;;;;;5133502;28;20218;-76
2024/02/09 05:09:06;;;;;;;6.32;5.32;;;4.50;99.90;;;;;;5132997;28;20218;-76
2024/02/09 05:11:36;;;;;;;6.38;5.78;;;4.60;99.90;;;;;;5132404;28;20218;-78
2024/02/09 05:14:04;;;;;;;7.50;6.28;;;4.60;99.90;;;;;;5133020;28;20564;-79
2024/02/09 05:16:32;;;;;;;6.60;6.00;;;4.60;99.90;;;;;;5133609;27;20225;-76
2024/02/09 05:19:00;;;;;;;7.35;5.82;;;4.60;99.90;;;;;;5137306;27;20250;-79
2024/02/09 05:21:28;;;;;;;5.57;5.07;;;4.60;99.90;;;;;;5137663;27;20225;-79
2024/02/09 05:23:55;;;;;;;5.72;4.90;;;4.50;99.90;;;;;;5137928;27;20269;-79
2024/02/09 05:26:23;;;;;;;6.55;5.00;;;4.60;99.90;;;;;;5137511;27;20233;-78
2024/02/09 05:28:51;;;;;;;5.82;5.28;;;4.50;99.90;;;;;;5136620;27;20245;-79
2024/02/09 05:31:23;;;;;;;5.75;5.18;;;4.60;99.90;;;;;;5137171;27;20218;-74
2024/02/09 05:33:51;;;;;;;7.18;5.57;;;4.50;99.90;;;;;;5137164;27;20230;-79
2024/02/09 05:36:22;;;;;;;8.77;4.85;;;4.60;99.90;;;;;;5136827;27;20222;-79
2024/02/09 05:38:50;;;;;;;5.35;4.85;;;4.60;99.90;;;;;;5137062;27;20313;-78
2024/02/09 05:41:18;;;;;;;5.28;4.88;;;4.60;99.90;;;;;;5136357;27;20213;-79
2024/02/09 05:43:47;;;;;;;6.05;5.45;;;4.50;99.90;;;;;;5136226;27;20222;-79
2024/02/09 05:46:19;;;;;;;6.03;4.82;;;4.60;99.90;;;;;;5136012;27;20308;-79
2024/02/09 05:48:49;;;;;;;5.93;5.40;;;4.50;99.90;;;;;;5137099;27;20310;-79
2024/02/09 05:51:18;;;;;;;5.85;5.22;;;4.60;99.90;;;;;;5135022;27;20226;-79
2024/02/09 05:53:46;;;;;;;5.75;5.25;;;4.60;99.90;;;;;;5135378;27;20230;-79
2024/02/09 05:56:19;;;;;;;7.65;5.00;;;4.60;99.90;;;;;;5135999;27;20221;-76
2024/02/09 05:58:49;;;;;;;5.40;4.72;;;4.50;99.90;;;;;;5136324;27;20213;-76
2024/02/09 06:01:19;;;;;;;4.88;4.40;;;4.50;99.90;;;;;;5136105;27;20225;-76
2024/02/09 06:03:47;;;;;;;8.68;7.88;;;4.40;99.90;;;;;;5136587;27;20218;-76
2024/02/09 06:06:16;;;;;;;6.28;5.13;;;4.30;99.90;;;;;;5135505;27;20334;-76
2024/02/09 06:08:45;;;;;;;7.10;6.40;;;4.30;99.90;;;;;;5136229;27;20505;-76
2024/02/09 06:11:13;;;;;;;8.10;7.30;;;4.40;99.90;;;;;;5131276;27;20218;-76
2024/02/09 06:13:44;;;;;;;5.60;5.10;;;4.40;99.90;;;;;;5136077;27;20312;-76
2024/02/09 06:16:12;;;;;;;11.60;8.02;;;4.40;99.90;;;;;;5135770;27;20230;-76
2024/02/09 06:18:42;;;;;;;6.30;5.80;;;4.30;99.90;;;;;;5136310;27;20221;-76
2024/02/09 06:21:10;;;;;;;6.22;5.63;;;4.40;99.90;;;;;;5135668;27;20687;-76
2024/02/09 06:23:39;;;;;;;11.05;8.90;;;4.30;99.90;;;;;;5135803;27;20262;-76
2024/02/09 06:26:06;;;;;;;11.57;7.93;;;4.40;99.90;;;;;;5135840;27;20694;-76
2024/02/09 06:28:33;;;;;;;22.25;13.38;;;4.30;99.90;;;;;;5135267;27;20222;-76
2024/02/09 06:31:00;;;;;;;21.00;13.07;;;4.40;99.90;;;;;;5135770;27;20225;-76
2024/02/09 06:33:28;;;;;;;10.85;9.00;;;4.50;99.90;;;;;;5135803;27;20242;-76
2024/02/09 06:35:58;;;;;;;11.43;8.80;;;4.50;99.90;;;;;;5135560;27;20282;-76
2024/02/09 06:38:25;;;;;;;25.38;13.85;;;4.50;99.90;;;;;;5135452;27;20214;-76
2024/02/09 06:40:53;;;;;;;18.17;10.55;;;4.60;99.90;;;;;;5136424;27;20222;-75
2024/02/09 06:43:22;;;;;;;39.67;20.42;;;4.60;99.90;;;;;;5134895;27;20221;-78
2024/02/09 06:45:50;;;;;;;17.13;10.20;;;4.50;99.90;;;;;;5135734;27;20214;-79
2024/02/09 06:48:17;;;;;;;40.58;21.60;;;4.50;99.90;;;;;;5134918;27;20226;-79
2024/02/09 06:50:45;;;;;;;19.13;12.05;;;4.40;99.90;;;;;;5135523;27;20225;-78
2024/02/09 06:53:13;;;;;;;18.35;11.82;;;4.50;99.90;;;;;;5135150;27;20683;-78
2024/02/09 06:55:41;;;;;;;25.05;15.15;;;4.50;99.90;;;;;;5135852;27;20222;-78
2024/02/09 06:58:09;;;;;;;17.20;11.25;;;4.50;99.90;;;;;;5135005;27;20233;-77
2024/02/09 07:00:36;;;;;;;16.15;11.05;;;4.50;99.90;;;;;;5135585;27;20226;-78
2024/02/09 07:03:04;;;;;;;9.18;8.27;;;4.50;99.90;;;;;;5134657;27;20256;-76
2024/02/09 07:05:34;;;;;;;13.40;9.60;;;4.50;99.90;;;;;;5134854;27;20218;-75
2024/02/09 07:08:02;;;;;;;15.18;10.32;;;4.50;99.90;;;;;;5134872;27;20226;-75
2024/02/09 07:10:31;;;;;;;18.48;12.15;;;4.40;99.90;;;;;;5132333;27;20217;-75
2024/02/09 07:12:58;;;;;;;16.02;9.20;;;4.50;99.90;;;;;;5133474;27;20222;-75
2024/02/09 07:15:25;;;;;;;11.10;9.98;;;4.50;99.90;;;;;;5134480;27;20237;-76
2024/02/09 07:17:55;;;;;;;8.82;7.95;;;4.50;99.90;;;;;;5135324;27;20221;-76
2024/02/09 07:20:23;;;;;;;5.95;5.45;;;4.60;99.90;;;;;;5135055;27;20243;-76
2024/02/09 07:22:51;;;;;;;13.77;12.57;;;4.50;99.90;;;;;;5135897;27;20226;-78
2024/02/09 07:25:19;;;;;;;6.82;6.32;;;4.60;99.90;;;;;;5135492;27;20225;-78
2024/02/09 07:27:48;;;;;;;6.00;5.40;;;4.60;99.90;;;;;;5135178;27;20562;-76
2024/02/09 07:30:17;;;;;;;5.35;4.95;;;4.70;99.90;;;;;;5133927;27;20230;-76
2024/02/09 07:32:44;;;;;;;5.38;4.80;;;4.60;99.90;;;;;;5134772;27;20246;-75
2024/02/09 07:35:12;;;;;;;4.68;4.28;;;4.60;99.90;;;;;;5133970;27;20226;-76
2024/02/09 07:37:40;;;;;;;4.50;4.15;;;4.60;99.90;;;;;;5134566;27;20222;-76
2024/02/09 07:40:16;;;;;;;5.82;3.65;;;4.70;99.90;;;;;;5134720;27;20229;-75
2024/02/09 07:42:44;;;;;;;3.25;3.00;;;4.80;99.90;;;;;;5135174;27;20230;-75
2024/02/09 07:45:16;;;;;;;4.78;4.38;;;4.80;99.90;;;;;;5134159;27;20535;-75
2024/02/09 07:47:45;;;;;;;3.35;3.00;;;4.90;99.90;;;;;;5134675;27;20218;-76
2024/02/09 07:50:12;;;;;;;6.20;3.80;;;4.90;99.90;;;;;;5134544;27;20663;-77
2024/02/09 07:52:39;;;;;;;3.97;3.63;;;4.90;99.90;;;;;;5134661;27;20221;-78
2024/02/09 07:55:08;;;;;;;3.63;3.13;;;4.90;99.90;;;;;;5134294;27;20591;-78
2024/02/09 07:57:36;;;;;;;3.85;3.45;;;4.90;99.90;;;;;;5134963;27;20305;-78
2024/02/09 08:00:08;;;;;;;3.35;3.00;;;4.90;99.90;;;;;;5134185;27;20221;-78
2024/02/09 08:02:37;;;;;;;3.13;2.92;;;5.00;99.90;;;;;;5134176;27;20702;-75
2024/02/09 08:05:07;;;;;;;3.38;3.08;;;5.00;99.90;;;;;;5133721;27;20309;-78
2024/02/09 08:07:35;;;;;;;3.45;3.15;;;4.90;99.90;;;;;;5134477;27;20248;-78
2024/02/09 08:10:03;;;;;;;3.65;3.10;;;5.00;99.90;;;;;;5122928;27;20228;-76
2024/02/09 08:12:34;;;;;;;3.60;3.30;;;5.00;99.90;;;;;;5133676;27;20225;-77
2024/02/09 08:15:01;;;;;;;3.97;3.55;;;5.00;99.90;;;;;;5134261;27;20225;-76
2024/02/09 08:17:28;;;;;;;5.70;3.80;;;5.00;99.90;;;;;;5134015;27;20228;-76
2024/02/09 08:19:57;;;;;;;4.38;3.92;;;5.10;99.90;;;;;;5133659;27;20218;-76
2024/02/09 08:22:32;;;;;;;4.28;3.83;;;5.10;99.90;;;;;;5133781;27;20218;-76
2024/02/09 08:24:59;;;;;;;5.15;4.65;;;5.00;99.90;;;;;;5133351;27;20225;-78
2024/02/09 08:27:30;;;;;;;6.30;4.15;;;5.10;99.90;;;;;;5134045;27;20619;-78
2024/02/09 08:29:57;;;;;;;4.72;4.32;;;5.10;99.90;;;;;;5133505;28;20229;-76
2024/02/09 08:32:27;;;;;;;3.75;3.38;;;5.10;99.90;;;;;;5134369;28;20218;-76
2024/02/09 08:34:59;;;;;;;3.90;3.60;;;5.20;99.90;;;;;;5133970;28;20265;-79
2024/02/09 08:37:27;;;;;;;3.53;3.33;;;5.00;99.90;;;;;;5133516;28;20719;-76
2024/02/09 08:39:54;;;;;;;4.45;4.03;;;5.00;99.90;;;;;;5134110;28;20250;-76
2024/02/09 08:42:21;;;;;;;4.60;4.20;;;4.90;99.90;;;;;;5133331;28;20308;-76
2024/02/09 08:44:48;;;;;;;4.40;4.00;;;5.00;99.90;;;;;;5133848;28;20282;-76
2024/02/09 08:47:15;;;;;;;3.85;3.55;;;5.10;99.90;;;;;;5123103;28;20242;-78
2024/02/09 08:49:46;;;;;;;4.00;3.58;;;5.10;99.90;;;;;;5133878;28;20265;-78
2024/02/09 08:52:16;;;;;;;3.78;3.38;;;5.10;99.90;;;;;;5134426;27;20232;-76
2024/02/09 08:54:45;;;;;;;3.60;3.30;;;5.20;99.90;;;;;;5138289;27;20221;-76
2024/02/09 08:57:12;;;;;;;4.78;4.38;;;5.20;99.90;;;;;;5137170;27;20222;-76
2024/02/09 08:59:41;;;;;;;4.40;4.00;;;5.20;99.90;;;;;;5138238;27;20244;-78
2024/02/09 09:02:11;;;;;;;4.57;3.92;;;5.20;99.90;;;;;;5136964;27;20226;-78
2024/02/09 09:04:38;;;;;;;3.95;3.60;;;5.30;99.90;;;;;;5137644;27;20652;-79
2024/02/09 09:07:05;;;;;;;3.30;3.00;;;5.20;99.90;;;;;;5137768;27;20222;-78
2024/02/09 09:09:33;;;;;;;3.45;3.15;;;5.20;99.90;;;;;;5136896;27;20292;-78
2024/02/09 09:12:00;;;;;;;4.25;3.83;;;5.20;99.90;;;;;;5137484;27;20226;-78
2024/02/09 09:14:27;;;;;;;5.15;3.78;;;5.30;99.90;;;;;;5137269;27;20237;-78
2024/02/09 09:16:56;;;;;;;4.45;4.15;;;5.40;99.90;;;;;;5137571;27;20230;-76
2024/02/09 09:19:23;;;;;;;4.30;3.70;;;5.50;99.90;;;;;;5136545;27;20226;-76
2024/02/09 09:21:50;;;;;;;3.53;3.22;;;5.50;99.90;;;;;;5136993;27;20214;-78
2024/02/09 09:24:17;;;;;;;6.28;4.28;;;5.50;99.90;;;;;;5136910;27;20234;-78
2024/02/09 09:26:45;;;;;;;4.63;4.13;;;5.40;99.90;;;;;;5137639;27;20385;-78
2024/02/09 09:29:31;;;;;;;4.63;4.15;;;5.40;99.90;;;;;;5128804;27;20222;-79
2024/02/09 09:32:00;;;;;;;4.70;4.30;;;5.40;99.90;;;;;;5137494;27;20214;-77
2024/02/09 09:34:30;;;;;;;4.93;4.53;;;5.30;99.90;;;;;;5137635;27;20363;-79
2024/02/09 09:36:57;;;;;;;4.25;3.85;;;5.30;99.90;;;;;;5136329;27;20222;-79
2024/02/09 09:39:24;;;;;;;4.50;4.10;;;5.30;99.90;;;;;;5137016;27;20605;-77
2024/02/09 09:41:55;;;;;;;5.03;4.35;;;5.40;99.90;;;;;;5137335;27;20218;-79
2024/02/09 09:44:26;;;;;;;4.40;4.00;;;5.50;99.90;;;;;;5136603;27;20639;-77
2024/02/09 09:46:58;;;;;;;6.25;4.50;;;5.50;99.90;;;;;;5137051;27;20701;-77
2024/02/09 09:49:26;;;;;;;4.38;4.07;;;5.50;99.90;;;;;;5136807;27;20243;-77
2024/02/09 09:51:57;;;;;;;3.95;3.55;;;5.60;99.90;;;;;;5137107;27;20585;-77
2024/02/09 09:54:24;;;;;;;4.90;4.07;;;5.60;99.90;;;;;;5135140;27;20220;-77
2024/02/09 09:56:55;;;;;;;6.03;4.93;;;5.70;99.90;;;;;;5136703;27;20298;-79
2024/02/09 09:59:22;;;;;;;4.80;4.30;;;5.70;99.90;;;;;;5136279;27;20218;-79
2024/02/09 10:01:50;;;;;;;5.10;4.43;;;5.80;99.90;;;;;;5136953;27;20346;-79
2024/02/09 10:04:17;;;;;;;4.32;3.92;;;5.80;99.90;;;;;;5134586;27;20252;-79
2024/02/09 10:06:44;;;;;;;4.15;3.85;;;5.80;99.90;;;;;;5136957;27;20217;-77
2024/02/09 10:09:16;;;;;;;4.93;4.53;;;5.80;99.90;;;;;;5123868;27;20229;-79
2024/02/09 10:11:45;;;;;;;5.82;4.90;;;5.80;99.90;;;;;;5124051;27;20222;-78
2024/02/09 10:14:16;;;;;;;4.40;4.00;;;5.80;99.90;;;;;;5115921;27;20234;-79
2024/02/09 10:16:44;;;;;;;4.20;3.83;;;5.80;99.90;;;;;;5135653;27;20285;-76
2024/02/09 10:19:13;;;;;;;4.00;3.70;;;5.90;99.90;;;;;;5135718;27;20230;-77
2024/02/09 10:21:41;;;;;;;4.43;3.70;;;5.90;99.90;;;;;;5136291;27;20218;-76
2024/02/09 10:24:10;;;;;;;3.90;3.60;;;6.00;99.90;;;;;;5136271;27;20726;-79
2024/02/09 10:26:37;;;;;;;3.58;3.33;;;6.00;99.90;;;;;;5136149;27;20214;-76
2024/02/09 10:29:05;;;;;;;4.43;3.85;;;6.00;99.90;;;;;;5137188;27;20228;-78
2024/02/09 10:31:34;;;;;;;5.00;4.60;;;6.10;99.90;;;;;;5135423;27;20222;-79
2024/02/09 10:34:03;;;;;;;3.92;3.58;;;6.10;99.90;;;;;;5136288;27;20653;-79
2024/02/09 10:36:30;;;;;;;4.90;3.42;;;6.10;99.90;;;;;;5135456;27;20651;-79
2024/02/09 10:38:58;;;;;;;3.83;3.47;;;6.10;99.90;;;;;;5135387;27;20249;-79
2024/02/09 10:41:29;;;;;;;3.72;3.35;;;6.20;99.90;;;;;;5135175;27;20248;-79
2024/02/09 10:43:59;;;;;;;4.05;3.70;;;6.30;99.90;;;;;;5136544;27;20233;-79
2024/02/09 10:46:29;;;;;;;5.00;4.50;;;6.30;99.90;;;;;;5135377;27;20305;-79
2024/02/09 10:48:59;;;;;;;5.70;4.70;;;6.30;99.90;;;;;;5136301;27;20313;-76
2024/02/09 10:51:30;;;;;;;5.97;5.35;;;6.40;99.90;;;;;;5132389;27;20230;-76
2024/02/09 10:54:03;;;;;;;6.88;5.63;;;6.30;99.90;;;;;;5135900;27;20229;-79
2024/02/09 10:56:35;;;;;;;5.05;4.55;;;6.40;99.90;;;;;;5134024;27;20217;-76
2024/02/09 10:59:06;;;;;;;6.43;5.55;;;6.40;99.90;;;;;;5135040;27;20226;-76
2024/02/09 11:01:36;;;;;;;6.18;3.95;;;6.30;99.90;;;;;;5134469;27;20218;-76
2024/02/09 11:04:04;;;;;;;6.53;5.10;;;6.40;99.90;;;;;;5135388;27;20226;-76
2024/02/09 11:06:33;;;;;;;5.55;5.00;;;6.40;99.90;;;;;;5134935;27;20300;-78
2024/02/09 11:09:01;;;;;;;5.25;4.75;;;6.40;99.90;;;;;;5135467;27;20600;-79
2024/02/09 11:11:32;;;;;;;5.40;4.90;;;6.40;99.90;;;;;;5130244;27;20241;-79
2024/02/09 11:14:11;;;;;;;5.40;4.95;;;6.50;99.90;;;;;;5135230;27;20590;-79
2024/02/09 11:16:46;;;;;;;6.55;5.53;;;6.50;99.90;;;;;;5123576;27;20297;-78
2024/02/09 11:19:17;;;;;;;6.43;5.82;;;6.50;99.90;;;;;;5135845;27;20564;-75
2024/02/09 11:21:48;;;;;;;6.72;5.38;;;6.60;99.90;;;;;;5134348;27;20237;-76
2024/02/09 11:24:16;;;;;;;10.57;5.03;;;6.70;99.90;;;;;;5135319;27;20222;-76
2024/02/09 11:26:48;;;;;;;5.97;5.47;;;6.80;99.90;;;;;;5135873;27;20589;-75
2024/02/09 11:29:16;;;;;;;6.35;4.80;;;6.80;99.90;;;;;;5139632;27;20682;-75
2024/02/09 11:31:47;;;;;;;5.47;4.97;;;6.80;99.90;;;;;;5137925;27;20574;-75
2024/02/09 11:34:24;;;;;;;7.00;5.00;;;6.90;99.90;;;;;;5138068;27;20234;-76
2024/02/09 11:36:52;;;;;;;6.25;5.72;;;7.00;99.90;;;;;;5135178;27;20214;-79
2024/02/09 11:39:22;;;;;;;6.32;5.35;;;7.10;99.90;;;;;;5135841;27;20226;-78
2024/02/09 11:41:55;;;;;;;5.90;5.40;;;7.10;99.90;;;;;;5112094;27;20207;-75
2024/02/09 11:44:23;;;;;;;7.22;6.63;;;7.00;99.90;;;;;;5135737;27;20300;-76
2024/02/09 11:46:52;;;;;;;6.32;5.80;;;7.10;99.90;;;;;;5133309;27;20303;-75
2024/02/09 11:49:23;;;;;;;5.93;5.43;;;7.10;99.90;;;;;;5133258;27;20221;-78
2024/02/09 11:52:02;;;;;;;6.80;6.10;;;7.20;99.90;;;;;;5094102;28;20265;-78
2024/02/09 11:54:31;;;;;;;5.97;5.47;;;7.20;99.90;;;;;;5093953;28;20277;-75
2024/02/09 11:57:00;;;;;;;6.28;5.68;;;7.20;99.90;;;;;;5089626;27;20294;-75
2024/02/09 11:59:29;;;;;;;7.22;6.53;;;7.20;99.90;;;;;;5119865;27;20214;-75
2024/02/09 12:01:56;;;;;;;6.72;6.13;;;7.30;99.90;;;;;;5107460;28;20283;-75
2024/02/09 12:04:25;;;;;;;6.75;6.15;;;7.30;99.90;;;;;;5114997;28;20219;-75
2024/02/09 12:06:53;;;;;;;5.22;4.72;;;7.40;99.90;;;;;;5116350;28;20297;-78
2024/02/09 12:09:20;;;;;;;6.88;6.18;;;7.30;99.90;;;;;;5115775;28;20219;-75
2024/02/09 12:11:48;;;;;;;6.78;6.20;;;7.30;99.90;;;;;;5114145;28;20238;-75
2024/02/09 12:14:15;;;;;;;5.88;5.38;;;7.30;99.90;;;;;;5113996;28;20658;-75
2024/02/09 12:16:50;;;;;;;6.03;5.55;;;7.40;99.90;;;;;;5097657;28;20738;-78
2024/02/09 12:19:17;;;;;;;7.18;6.47;;;7.40;99.90;;;;;;5093922;28;20221;-75
2024/02/09 12:21:47;;;;;;;6.97;6.28;;;7.40;99.90;;;;;;5102054;28;20261;-76
2024/02/09 12:24:14;;;;;;;5.88;5.45;;;7.50;99.90;;;;;;5113532;28;20234;-78
2024/02/09 12:26:47;;;;;;;6.97;6.28;;;7.50;99.90;;;;;;5108984;28;20215;-78
2024/02/09 12:29:17;;;;;;;7.78;7.13;;;7.60;99.90;;;;;;5114487;28;20223;-75
2024/02/09 12:31:49;;;;;;;6.03;5.47;;;7.60;99.90;;;;;;5113558;28;20248;-75
2024/02/09 12:34:17;;;;;;;6.65;6.05;;;7.60;99.90;;;;;;5120043;28;20222;-75
2024/02/09 12:36:57;;;;;;;6.70;6.10;;;7.70;99.90;;;;;;5120803;28;20218;-76
2024/02/09 12:39:29;;;;;;;6.47;5.88;;;7.80;99.90;;;;;;5101576;28;20656;-78
2024/02/09 12:42:01;;;;;;;7.32;6.75;;;7.90;99.90;;;;;;5095828;28;20259;-76
2024/02/09 12:44:30;;;;;;;6.22;5.72;;;7.90;99.90;;;;;;5096859;28;20243;-78
2024/02/09 12:46:58;;;;;;;7.78;7.07;;;8.00;99.90;;;;;;5081881;28;20227;-76
2024/02/09 12:49:26;;;;;;;9.02;7.15;;;7.90;99.90;;;;;;5102041;28;20214;-76
2024/02/09 12:51:55;;;;;;;6.80;6.15;;;8.00;99.90;;;;;;5133493;28;20225;-75
2024/02/09 12:54:25;;;;;;;7.43;6.75;;;8.00;99.90;;;;;;5135163;28;20218;-78
2024/02/09 12:56:55;;;;;;;8.73;7.22;;;8.10;99.90;;;;;;5134238;28;20221;-76
2024/02/09 12:59:23;;;;;;;8.15;7.30;;;8.10;99.90;;;;;;5134549;28;20222;-76
2024/02/09 13:01:50;;;;;;;8.65;7.75;;;8.20;99.90;;;;;;5134563;28;20222;-76
2024/02/09 13:04:17;;;;;;;9.75;8.75;;;8.20;99.90;;;;;;5134806;28;20716;-75
2024/02/09 13:06:44;;;;;;;10.15;8.20;;;8.20;99.90;;;;;;5134041;28;20218;-76
2024/02/09 13:09:12;;;;;;;8.38;7.68;;;8.10;99.90;;;;;;5129740;28;20222;-79
2024/02/09 13:11:40;;;;;;;8.25;7.45;;;8.20;99.90;;;;;;5134502;27;20259;-79
2024/02/09 13:14:07;;;;;;;15.07;7.53;;;8.20;99.90;;;;;;5135250;27;20222;-79
2024/02/09 13:16:34;;;;;;;8.50;7.70;;;8.20;99.90;;;;;;5133743;27;20221;-79
2024/02/09 13:19:02;;;;;;;8.63;7.75;;;8.20;99.90;;;;;;5142917;27;20252;-77
2024/02/09 13:21:31;;;;;;;8.98;8.07;;;8.20;99.90;;;;;;5153909;27;20229;-79
2024/02/09 13:23:59;;;;;;;9.30;8.30;;;8.20;99.90;;;;;;5151114;27;20232;-77
2024/02/09 13:26:29;;;;;;;8.00;7.25;;;8.20;99.90;;;;;;5122538;27;20684;-77
2024/02/09 13:28:57;;;;;;;8.68;7.32;;;8.30;99.90;;;;;;5123888;27;20293;-77
2024/02/09 13:31:24;;;;;;;10.57;7.63;;;8.20;99.90;;;;;;5141954;27;20226;-77
2024/02/09 13:33:51;;;;;;;9.85;8.20;;;8.30;99.90;;;;;;5132739;27;20218;-76
2024/02/09 13:36:19;;;;;;;10.25;9.05;;;8.30;99.90;;;;;;5128243;28;20305;-79
2024/02/09 13:38:46;;;;;;;8.57;7.78;;;8.30;99.90;;;;;;5129618;27;20275;-79
2024/02/09 13:41:13;;;;;;;10.02;9.05;;;8.40;99.90;;;;;;5142249;27;20629;-76
2024/02/09 13:43:42;;;;;;;10.38;8.80;;;8.40;99.90;;;;;;5138900;27;20233;-76
2024/02/09 13:46:09;;;;;;;11.93;10.02;;;8.50;99.90;;;;;;5122215;28;20243;-76
2024/02/09 13:48:36;;;;;;;11.35;8.60;;;8.50;99.90;;;;;;5124087;27;20565;-76
2024/02/09 13:51:04;;;;;;;10.98;9.88;;;8.50;99.90;;;;;;5137180;27;20572;-77
2024/02/09 13:53:31;;;;;;;10.02;8.85;;;8.40;99.90;;;;;;5138068;27;20218;-76
2024/02/09 13:55:58;;;;;;;10.20;9.20;;;8.40;99.90;;;;;;5151290;27;20221;-76
2024/02/09 13:58:26;;;;;;;8.38;7.50;;;8.40;99.90;;;;;;5143543;27;20247;-76
2024/02/09 14:00:55;;;;;;;11.05;8.70;;;8.40;99.90;;;;;;5155980;27;20573;-76
2024/02/09 14:03:22;;;;;;;10.13;8.98;;;8.40;99.90;;;;;;5143931;27;20248;-76
2024/02/09 14:05:49;;;;;;;11.35;8.93;;;8.40;99.90;;;;;;5138326;27;20239;-76
2024/02/09 14:08:20;;;;;;;9.63;8.65;;;8.20;99.90;;;;;;5145747;27;20211;-75
2024/02/09 14:10:47;;;;;;;10.45;9.40;;;8.20;99.90;;;;;;5141036;27;20542;-77
2024/02/09 14:13:14;;;;;;;9.15;8.35;;;8.20;99.90;;;;;;5144112;27;20677;-77
2024/02/09 14:15:41;;;;;;;8.75;7.97;;;8.30;99.90;;;;;;5140957;27;20228;-77
2024/02/09 14:18:10;;;;;;;10.73;9.80;;;8.40;99.90;;;;;;5139156;27;20244;-77
2024/02/09 14:20:37;;;;;;;11.02;9.90;;;8.40;99.90;;;;;;5158023;27;20304;-77
2024/02/09 14:23:05;;;;;;;10.75;9.73;;;8.40;99.90;;;;;;5157091;27;20259;-77
2024/02/09 14:25:32;;;;;;;9.98;8.95;;;8.30;99.90;;;;;;5149495;27;20244;-77
2024/02/09 14:27:59;;;;;;;9.40;8.40;;;8.40;99.90;;;;;;5136686;27;20297;-78
2024/02/09 14:30:26;;;;;;;11.90;9.95;;;8.40;99.90;;;;;;5138667;27;20651;-77
2024/02/09 14:32:54;;;;;;;12.48;11.18;;;8.40;99.90;;;;;;5138399;27;20686;-77
2024/02/09 14:35:22;;;;;;;26.38;23.85;;;8.40;99.90;;;;;;5142792;27;21017;-77
2024/02/09 14:37:50;;;;;;;16.05;14.45;;;8.40;99.90;;;;;;5142262;27;20217;-77
2024/02/09 14:40:17;;;;;;;15.20;13.65;;;8.40;99.90;;;;;;5130506;27;20223;-77
2024/02/09 14:42:44;;;;;;;14.70;13.40;;;8.50;99.90;;;;;;5118377;27;20310;-77
2024/02/09 14:45:15;;;;;;;10.63;9.52;;;8.50;99.90;;;;;;5139550;27;20223;-78
2024/02/09 14:47:43;;;;;;;10.82;9.80;;;8.60;99.90;;;;;;5138223;27;20210;-77
2024/02/09 14:50:10;;;;;;;11.65;10.55;;;8.60;99.90;;;;;;5137515;27;20234;-77
2024/02/09 14:52:45;;;;;;;11.30;9.75;;;8.60;99.90;;;;;;5137310;27;20233;-77